Time;durP1;ratioP1;P1;durP2;ratioP2;P2;SDS_P1;SDS_P2;PMS_P1;PMS_P2;Temp;Humidity;BMP_temperature;BMP_pressure;BME280_temperature;BME280_humidity;BME280_pressure;Samples;Min_cycle;Max_cycle;Signal;HPM_P1;HPM_P2
2022/02/03 00:01:28;;;;;;;8.25;4.75;;;5.20;28.40;;;;;;5055684;28;20029;-72
2022/02/03 00:04:09;;;;;;;7.30;3.55;;;5.30;28.70;;;;;;5055143;28;20128;-71
2022/02/03 00:06:53;;;;;;;6.40;3.95;;;5.30;28.70;;;;;;5056214;28;20052;-72
2022/02/03 00:22:56;;;;;;;10.32;5.75;;;4.80;36.60;;;;;;5055415;28;20519;-71
2022/02/03 00:25:32;;;;;;;11.15;5.90;;;4.50;36.70;;;;;;5055279;28;20045;-71
2022/02/03 00:28:17;;;;;;;5.55;3.50;;;4.40;41.60;;;;;;5054970;28;20036;-71
2022/02/03 00:33:21;;;;;;;10.88;6.72;;;4.20;44.70;;;;;;5055167;28;20032;-71
2022/02/03 00:49:12;;;;;;;13.40;8.70;;;4.20;52.40;;;;;;5054030;28;19959;-71
2022/02/03 00:51:43;;;;;;;12.45;7.43;;;4.10;53.90;;;;;;5054366;28;20033;-71
2022/02/03 00:54:10;;;;;;;;;;;3.90;54.00;;;;;;5055148;28;20107;-71
2022/02/03 00:56:44;;;;;;;7.38;4.47;;;3.80;58.10;;;;;;5054244;28;19905;-71
2022/02/03 00:59:11;;;;;;;9.07;5.70;;;3.80;60.90;;;;;;5054645;28;20052;-71
2022/02/03 01:01:40;;;;;;;10.40;5.22;;;3.70;58.60;;;;;;5054342;28;20116;-71
2022/02/03 01:04:11;;;;;;;5.68;3.70;;;3.70;61.70;;;;;;5054292;28;20041;-71
2022/02/03 01:06:46;;;;;;;7.18;4.82;;;3.50;62.10;;;;;;5054486;28;20041;-71
2022/02/03 01:09:14;;;;;;;12.98;7.82;;;3.50;68.70;;;;;;5054247;28;20025;-71
2022/02/03 01:11:45;;;;;;;6.85;4.70;;;3.50;68.40;;;;;;5055201;28;20029;-71
2022/02/03 01:14:19;;;;;;;36.47;21.02;;;3.30;71.40;;;;;;5054062;28;20087;-71
2022/02/03 01:19:54;;;;;;;13.38;8.00;;;3.10;76.10;;;;;;5053957;28;20134;-71
2022/02/03 01:44:52;;;;;;;32.70;18.27;;;2.90;82.10;;;;;;5053656;28;20137;-72
2022/02/03 01:52:43;;;;;;;59.70;38.88;;;2.70;90.10;;;;;;5057695;28;20021;-71
2022/02/03 01:55:18;;;;;;;32.95;22.10;;;2.70;89.20;;;;;;5057862;28;20032;-72
2022/02/03 01:57:53;;;;;;;23.60;15.27;;;2.70;90.20;;;;;;5058026;28;20041;-71
2022/02/03 02:00:21;;;;;;;15.88;10.18;;;2.70;90.00;;;;;;5057573;28;20037;-72
2022/02/03 02:03:02;;;;;;;9.75;5.97;;;2.60;81.50;;;;;;5057562;28;20077;-72
2022/02/03 02:05:49;;;;;;;10.52;6.90;;;2.50;75.10;;;;;;5057887;28;20045;-72
2022/02/03 02:08:27;;;;;;;10.18;6.90;;;2.40;83.50;;;;;;5057556;28;20036;-72
2022/02/03 02:11:34;;;;;;;10.48;7.30;;;2.30;89.10;;;;;;5057682;28;20056;-71
2022/02/03 02:17:29;;;;;;;10.02;6.78;;;2.30;90.40;;;;;;5057270;28;20086;-71
2022/02/03 02:39:10;;;;;;;5.82;4.40;;;1.80;88.30;;;;;;5056552;28;20028;-71
2022/02/03 02:44:47;;;;;;;8.88;6.55;;;1.70;99.90;;;;;;5057417;28;20079;-72
2022/02/03 02:47:23;;;;;;;8.60;6.10;;;1.80;98.50;;;;;;5057366;28;20028;-72
2022/02/03 02:50:11;;;;;;;7.70;5.53;;;1.70;99.90;;;;;;5057188;28;20041;-72
2022/02/03 02:52:49;;;;;;;9.60;6.65;;;1.60;99.90;;;;;;5057413;28;20063;-72
2022/02/03 03:36:12;;;;;;;7.03;4.60;;;1.00;99.90;;;;;;5056568;28;20032;-71
2022/02/03 03:38:41;;;;;;;14.13;7.90;;;1.00;99.90;;;;;;5055901;28;20033;-71
2022/02/03 03:41:11;;;;;;;10.73;6.25;;;1.00;99.90;;;;;;5056711;28;20028;-71
2022/02/03 03:43:43;;;;;;;13.18;7.32;;;1.00;99.90;;;;;;5055534;28;20141;-71
2022/02/03 03:46:27;;;;;;;15.35;7.25;;;0.90;99.90;;;;;;5055801;28;20533;-71
2022/02/03 03:49:30;;;;;;;12.68;6.80;;;0.90;99.90;;;;;;5055112;28;20464;-71
2022/02/03 03:52:06;;;;;;;19.40;8.95;;;0.90;99.90;;;;;;5055996;28;20037;-71
2022/02/03 04:43:27;;;;;;;11.52;6.38;;;0.60;99.90;;;;;;5054974;28;20043;-71
2022/02/03 04:55:16;;;;;;;8.60;4.28;;;0.20;99.90;;;;;;5054127;28;20531;-71
2022/02/03 05:07:03;;;;;;;7.07;3.38;;;0.00;99.90;;;;;;5054324;28;20091;-71
2022/02/03 05:10:07;;;;;;;6.50;3.45;;;0.20;99.90;;;;;;5054390;28;20032;-71
2022/02/03 05:49:17;;;;;;;8.43;5.13;;;-0.10;99.90;;;;;;5057341;28;20040;-71
2022/02/03 06:16:08;;;;;;;7.03;4.22;;;-0.50;99.90;;;;;;5057311;28;20376;-71
2022/02/03 06:23:57;;;;;;;8.98;4.68;;;-0.50;99.90;;;;;;5057107;28;20040;-71
2022/02/03 06:29:15;;;;;;;10.63;5.80;;;-0.60;99.90;;;;;;5053077;28;20052;-71
2022/02/03 06:31:47;;;;;;;7.95;5.03;;;-0.70;99.90;;;;;;5044749;28;20025;-71
2022/02/03 06:34:13;;;;;;;8.65;5.18;;;-0.70;99.90;;;;;;5056129;28;20123;-71
2022/02/03 06:36:41;;;;;;;8.75;4.60;;;-0.70;99.90;;;;;;5057143;28;20036;-70
2022/02/03 06:39:18;;;;;;;7.35;4.03;;;-0.60;99.90;;;;;;5056338;28;20502;-70
2022/02/03 06:41:45;;;;;;;6.00;3.75;;;-0.60;99.90;;;;;;5056190;28;20036;-70
2022/02/03 06:44:14;;;;;;;18.40;11.20;;;-0.70;99.90;;;;;;5056127;28;20135;-70
2022/02/03 06:46:50;;;;;;;15.35;9.52;;;-0.70;99.90;;;;;;5056658;28;20033;-70
2022/02/03 06:49:37;;;;;;;20.85;11.57;;;-0.40;99.90;;;;;;5056176;28;20033;-70
2022/02/03 06:52:10;;;;;;;19.65;9.90;;;-0.50;99.90;;;;;;5056464;28;20025;-70
2022/02/03 06:54:53;;;;;;;9.23;5.82;;;-0.40;99.90;;;;;;5056745;28;20041;-71
2022/02/03 06:57:28;;;;;;;13.13;7.18;;;-0.60;99.90;;;;;;5055153;28;20422;-71
2022/02/03 07:00:04;;;;;;;17.27;8.63;;;-1.00;99.90;;;;;;5056137;28;20037;-70
2022/02/03 07:02:35;;;;;;;9.70;5.55;;;-1.00;99.90;;;;;;5056252;28;20043;-71
2022/02/03 07:05:01;;;;;;;11.88;7.00;;;-0.70;99.90;;;;;;5056602;28;20095;-71
2022/02/03 07:07:27;;;;;;;5.82;3.90;;;-0.70;99.90;;;;;;5055600;28;20033;-71
2022/02/03 07:09:53;;;;;;;7.18;3.47;;;-0.60;99.90;;;;;;5055478;28;20079;-70
2022/02/03 07:12:21;;;;;;;7.90;4.28;;;-0.90;99.90;;;;;;5055541;28;20146;-70
2022/02/03 07:14:48;;;;;;;11.43;5.60;;;-0.80;99.90;;;;;;5052739;28;20363;-71
2022/02/03 07:17:14;;;;;;;10.43;5.70;;;-0.70;99.90;;;;;;5056146;28;20064;-71
2022/02/03 07:19:46;;;;;;;7.32;4.80;;;-0.60;99.90;;;;;;5043850;28;20060;-70
2022/02/03 07:22:12;;;;;;;5.75;3.20;;;-0.60;99.90;;;;;;5036657;28;20068;-70
2022/02/03 07:24:38;;;;;;;7.97;3.38;;;-0.80;93.10;;;;;;5037241;28;20033;-71
2022/02/03 07:27:05;;;;;;;7.93;3.83;;;-1.30;93.90;;;;;;5046810;28;20041;-71
2022/02/03 07:29:30;;;;;;;8.60;4.18;;;-0.70;99.90;;;;;;5036423;28;20032;-71
2022/02/03 07:31:56;;;;;;;11.27;7.50;;;-0.70;99.90;;;;;;5034524;28;20037;-70
2022/02/03 07:34:22;;;;;;;21.58;11.93;;;-0.40;99.90;;;;;;5034103;28;20484;-70
2022/02/03 07:36:48;;;;;;;17.55;10.43;;;-0.60;99.90;;;;;;5034166;28;20033;-71
2022/02/03 07:39:14;;;;;;;15.05;8.88;;;-0.30;99.90;;;;;;5035325;28;20079;-71
2022/02/03 07:41:41;;;;;;;20.80;7.97;;;-0.30;99.90;;;;;;5035397;28;20037;-71
2022/02/03 07:44:08;;;;;;;12.00;7.72;;;-0.50;98.90;;;;;;5035415;28;20569;-71
2022/02/03 07:46:35;;;;;;;15.15;10.02;;;-0.10;93.90;;;;;;5034768;28;20025;-71
2022/02/03 07:49:02;;;;;;;20.52;10.45;;;0.00;92.80;;;;;;5035387;28;20029;-71
2022/02/03 07:51:28;;;;;;;15.63;8.50;;;-0.20;92.00;;;;;;5035638;28;20033;-71
2022/02/03 07:53:54;;;;;;;12.02;7.32;;;0.00;90.20;;;;;;5035516;28;20550;-71
2022/02/03 07:56:20;;;;;;;12.63;7.75;;;0.00;87.70;;;;;;5035501;28;20033;-71
2022/02/03 07:58:45;;;;;;;14.73;9.02;;;0.20;91.50;;;;;;5035300;28;20047;-71
2022/02/03 08:01:11;;;;;;;10.13;5.95;;;0.40;80.60;;;;;;5035110;28;20041;-71
2022/02/03 08:03:43;;;;;;;12.40;7.75;;;0.50;69.50;;;;;;5034945;28;20041;-71
2022/02/03 08:06:15;;;;;;;11.98;7.25;;;0.40;70.00;;;;;;5034969;28;20038;-71
2022/02/03 08:08:46;;;;;;;10.80;5.78;;;0.40;70.50;;;;;;5035033;28;20045;-71
2022/02/03 08:11:17;;;;;;;5.55;4.03;;;0.70;72.00;;;;;;5034556;28;20034;-71
2022/02/03 08:13:55;;;;;;;5.63;3.53;;;0.90;69.30;;;;;;5034599;28;20037;-71
2022/02/03 08:16:28;;;;;;;25.60;12.43;;;1.00;65.90;;;;;;5034552;28;20069;-71
2022/02/03 08:19:06;;;;;;;29.52;16.63;;;1.00;54.30;;;;;;5034404;28;20044;-71
2022/02/03 08:21:35;;;;;;;30.90;17.15;;;1.20;55.60;;;;;;5035116;28;20037;-71
2022/02/03 08:24:20;;;;;;;11.07;6.57;;;1.60;52.90;;;;;;5034177;28;20068;-71
2022/02/03 08:27:01;;;;;;;13.57;7.90;;;1.50;57.60;;;;;;5033819;28;20045;-71
2022/02/03 08:32:01;;;;;;;16.45;10.73;;;1.70;55.30;;;;;;5046196;28;20038;-71
2022/02/03 08:34:45;;;;;;;16.50;9.45;;;1.90;43.50;;;;;;5043991;28;20044;-71
2022/02/03 08:37:12;;;;;;;16.63;9.45;;;2.00;42.20;;;;;;5052937;28;20033;-71
2022/02/03 08:39:51;;;;;;;15.77;9.40;;;2.20;40.70;;;;;;5054668;28;20041;-71
2022/02/03 08:42:17;;;;;;;17.90;10.43;;;2.40;40.50;;;;;;5054199;28;20116;-71
2022/02/03 08:44:43;;;;;;;20.75;10.55;;;2.40;38.10;;;;;;5054054;28;20049;-71
2022/02/03 08:47:09;;;;;;;12.45;7.88;;;2.50;39.20;;;;;;5049625;28;20056;-71
2022/02/03 08:49:39;;;;;;;12.90;7.53;;;2.80;38.30;;;;;;5047395;28;20040;-70
2022/02/03 08:52:09;;;;;;;362.23;211.03;;;2.80;42.50;;;;;;5054155;28;20106;-70
2022/02/03 08:54:37;;;;;;;48.80;29.77;;;2.80;38.10;;;;;;5053886;28;20068;-70
2022/02/03 08:57:17;;;;;;;27.15;15.23;;;2.90;35.90;;;;;;5054179;28;20091;-70
2022/02/03 09:32:13;;;;;;;10.40;7.00;;;3.20;31.40;;;;;;5052602;28;20534;-72
2022/02/03 09:35:57;;;;;;;6.10;3.30;;;3.50;31.80;;;;;;5053676;28;20083;-72
2022/02/03 09:41:28;;;;;;;10.05;3.33;;;4.20;22.30;;;;;;5053681;28;20169;-73
2022/02/03 09:55:13;;;;;;;6.68;3.70;;;5.20;16.20;;;;;;5053455;28;20037;-73
2022/02/03 09:57:50;;;;;;;6.55;4.07;;;5.50;15.00;;;;;;5054100;28;20033;-73
2022/02/03 10:00:25;;;;;;;7.97;4.38;;;5.80;14.50;;;;;;5053133;28;20575;-72
2022/02/03 10:03:04;;;;;;;12.07;4.95;;;6.10;17.10;;;;;;5053659;28;20111;-73
2022/02/03 10:05:41;;;;;;;13.68;5.40;;;6.50;19.40;;;;;;5053086;28;20039;-72
2022/02/03 10:08:19;;;;;;;16.65;5.05;;;7.00;22.90;;;;;;5053002;28;20040;-72
2022/02/03 10:10:47;;;;;;;12.10;5.65;;;7.50;18.30;;;;;;5055786;28;20068;-73
2022/02/03 10:13:18;;;;;;;14.02;5.65;;;7.80;20.10;;;;;;5055785;28;20041;-72
2022/02/03 10:15:45;;;;;;;10.80;4.57;;;8.20;66.10;;;;;;5056842;28;20039;-73
2022/02/03 10:18:28;;;;;;;11.27;3.72;;;8.30;63.90;;;;;;5055579;28;20044;-71
2022/02/03 10:20:56;;;;;;;30.10;4.75;;;8.40;63.40;;;;;;5057286;28;20197;-72
2022/02/03 10:23:24;;;;;;;37.92;5.40;;;8.40;63.10;;;;;;5057057;28;20029;-72
2022/02/03 10:25:56;;;;;;;28.83;4.30;;;8.30;55.50;;;;;;5056947;28;20037;-71
2022/02/03 10:28:25;;;;;;;45.08;6.50;;;8.20;58.50;;;;;;5056923;28;20033;-71
2022/02/03 10:30:56;;;;;;;24.75;4.60;;;7.30;53.10;;;;;;5057324;28;20037;-71
2022/02/03 10:33:34;;;;;;;20.52;5.68;;;7.80;46.70;;;;;;5056764;28;20472;-71
2022/02/03 10:36:06;;;;;;;24.77;3.45;;;7.90;14.30;;;;;;5056781;28;20033;-71
2022/02/03 10:54:47;;;;;;;14.45;1.95;;;8.60;4.40;;;;;;5056610;28;20128;-72
2022/02/03 11:05:45;;;;;;;6.40;1.40;;;8.80;1.00;;;;;;5050598;28;20041;-74
2022/02/03 11:08:32;;;;;;;7.50;2.25;;;9.00;2.20;;;;;;5056630;28;20111;-73
2022/02/03 11:11:01;;;;;;;9.10;2.80;;;9.20;5.00;;;;;;5056034;28;20047;-72
2022/02/03 11:13:34;;;;;;;9.00;3.17;;;9.90;48.60;;;;;;5055183;28;20138;-72
2022/02/03 11:16:05;;;;;;;11.80;5.07;;;10.00;47.50;;;;;;5054362;28;20041;-71
2022/02/03 11:18:34;;;;;;;11.55;2.75;;;10.20;58.90;;;;;;5056113;28;20033;-72
2022/02/03 11:21:01;;;;;;;7.43;2.40;;;10.40;45.40;;;;;;5056636;28;20061;-72
2022/02/03 11:34:34;;;;;;;8.32;2.30;;;11.90;16.40;;;;;;5055692;28;20067;-72
2022/02/03 11:37:32;;;;;;;3.13;1.20;;;12.30;10.90;;;;;;5056433;28;20040;-72
2022/02/03 11:43:27;;;;;;;4.00;1.30;;;12.70;9.30;;;;;;5043380;28;20037;-72
2022/02/03 12:07:23;;;;;;;1.27;1.15;;;12.20;32.80;;;;;;5034309;28;20197;-72
2022/02/03 12:12:48;;;;;;;16.73;13.10;;;12.00;38.70;;;;;;5045365;28;20478;-72
2022/02/03 12:18:32;;;;;;;8.73;6.63;;;;;;;;;;5054625;28;20063;-73
2022/02/03 12:21:05;;;;;;;;;;;;;;;;;;5053899;28;20077;-73
2022/02/03 12:26:24;;;;;;;2.35;1.38;;;;;;;;;;5053932;28;20037;-73
2022/02/03 12:28:57;;;;;;;3.65;2.38;;;12.60;73.20;;;;;;5054052;28;20499;-73
2022/02/03 12:32:21;;;;;;;2.13;1.10;;;12.30;45.90;;;;;;5052107;28;20079;-74
2022/02/03 12:39:37;;;;;;;3.63;2.63;;;11.80;28.70;;;;;;5054444;28;20069;-74
2022/02/03 12:42:07;;;;;;;3.65;2.70;;;11.50;22.80;;;;;;5053407;28;20041;-74
2022/02/03 12:44:38;;;;;;;2.90;2.60;;;11.50;26.90;;;;;;5054314;28;20049;-74
2022/02/03 12:47:05;;;;;;;4.50;2.50;;;11.40;36.40;;;;;;5052725;28;20363;-75
2022/02/03 12:49:36;;;;;;;3.35;2.50;;;11.50;41.70;;;;;;5044583;28;20118;-73
2022/02/03 12:52:19;;;;;;;4.63;2.80;;;;;;;;;;5053876;28;20045;-73
2022/02/03 12:54:46;;;;;;;3.47;2.47;;;;;;;;;;5053761;28;20051;-73
2022/02/03 12:57:14;;;;;;;8.70;3.80;;;;;;;;;;5054037;28;20037;-73
2022/02/03 12:59:40;;;;;;;3.40;2.97;;;11.40;32.40;;;;;;5053382;28;20368;-74
2022/02/03 13:02:10;;;;;;;7.28;3.30;;;11.10;3.20;;;;;;5053162;28;20048;-74
2022/02/03 13:04:37;;;;;;;5.40;3.47;;;11.10;11.50;;;;;;5052030;28;20399;-74
2022/02/03 13:07:09;;;;;;;4.90;4.05;;;10.60;56.40;;;;;;5054071;28;20044;-74
2022/02/03 13:09:51;;;;;;;5.43;3.80;;;10.80;57.40;;;;;;5053394;28;20098;-74
2022/02/03 13:12:21;;;;;;;5.82;3.60;;;10.80;62.90;;;;;;5051686;28;20037;-74
2022/02/03 13:14:54;;;;;;;5.78;3.20;;;11.00;51.10;;;;;;5037376;28;20120;-73
2022/02/03 13:17:26;;;;;;;5.28;3.47;;;10.60;77.80;;;;;;5035143;28;20040;-74
2022/02/03 13:20:06;;;;;;;4.70;3.92;;;10.60;80.80;;;;;;5042885;28;20087;-74
2022/02/03 13:22:49;;;;;;;6.00;3.80;;;10.80;40.90;;;;;;5031961;28;20038;-74
2022/02/03 13:25:38;;;;;;;6.45;3.58;;;11.00;44.60;;;;;;5031678;28;20052;-75
2022/02/03 13:28:13;;;;;;;4.47;3.35;;;;;;;;;;5033896;28;20033;-75
2022/02/03 13:30:49;;;;;;;7.35;3.55;;;;;;;;;;5032748;28;20041;-75
2022/02/03 13:33:21;;;;;;;5.10;3.60;;;10.90;73.70;;;;;;5032496;28;20040;-75
2022/02/03 13:35:52;;;;;;;5.88;3.20;;;10.90;56.60;;;;;;5031628;28;20088;-74
2022/02/03 13:38:39;;;;;;;5.13;3.30;;;10.70;47.90;;;;;;5031632;28;20261;-71
2022/02/03 13:41:17;;;;;;;5.55;3.22;;;10.50;45.60;;;;;;5051769;28;20033;-72
2022/02/03 13:43:45;;;;;;;6.03;3.40;;;10.40;47.70;;;;;;5053678;28;20057;-72
2022/02/03 13:46:27;;;;;;;7.63;3.78;;;10.30;51.50;;;;;;5057864;28;20033;-72
2022/02/03 13:48:54;;;;;;;7.00;3.53;;;;;;;;;;5058263;28;20037;-72
2022/02/03 13:51:26;;;;;;;7.63;3.85;;;;;;;;;;5057653;28;20068;-72
2022/02/03 13:54:07;;;;;;;3.40;3.08;;;10.10;61.80;;;;;;5057269;28;20056;-72
2022/02/03 14:18:47;;;;;;;4.68;3.15;;;;;;;;;;5054924;28;20444;-72
2022/02/03 14:21:28;;;;;;;3.45;2.70;;;10.00;57.20;;;;;;5045875;28;20041;-72
2022/02/03 14:27:39;;;;;;;4.63;3.05;;;10.20;54.00;;;;;;5056914;28;20171;-72
2022/02/03 14:29:42;;;;;;;6.63;2.53;;;;;;;;;;5027379;28;20116;-72
2022/02/03 14:32:09;;;;;;;4.78;2.47;;;10.00;42.10;;;;;;5038106;28;20033;-72
2022/02/03 14:34:36;;;;;;;3.88;2.58;;;10.00;31.80;;;;;;5037115;28;20040;-72
2022/02/03 14:42:09;;;;;;;4.18;3.20;;;10.90;52.60;;;;;;5054311;28;19905;-72
2022/02/03 14:44:39;;;;;;;4.30;3.20;;;;;;;;;;5045776;28;20057;-73
2022/02/03 14:47:06;;;;;;;3.92;3.53;;;10.20;40.70;;;;;;5036634;28;20047;-72
2022/02/03 14:49:33;;;;;;;6.38;3.75;;;10.20;40.80;;;;;;5046689;28;20033;-71
2022/02/03 14:52:54;;;;;;;3.85;3.10;;;10.30;59.90;;;;;;5054596;28;20025;-71
2022/02/03 15:00:15;;;;;;;4.10;3.05;;;10.20;39.80;;;;;;5040495;28;20389;-72
2022/02/03 15:02:42;;;;;;;4.70;3.13;;;;;;;;;;5051837;28;20029;-72
2022/02/03 15:05:12;;;;;;;4.55;3.38;;;10.00;60.00;;;;;;5048508;28;20222;-72
2022/02/03 15:07:42;;;;;;;4.78;3.25;;;9.90;37.00;;;;;;5055498;28;20123;-72
2022/02/03 15:15:04;;;;;;;4.68;3.15;;;9.70;27.90;;;;;;5035701;28;20480;-72
2022/02/03 15:17:33;;;;;;;4.82;3.28;;;9.60;28.50;;;;;;5035816;28;20121;-71
2022/02/03 15:19:59;;;;;;;5.03;3.30;;;9.60;29.50;;;;;;5034784;28;20037;-72
2022/02/03 15:22:26;;;;;;;6.00;4.00;;;9.70;42.40;;;;;;5035704;28;20044;-72
2022/02/03 15:24:52;;;;;;;6.18;3.38;;;9.70;54.00;;;;;;5036876;28;20045;-72
2022/02/03 15:27:18;;;;;;;3.75;3.00;;;9.70;51.20;;;;;;5044752;28;20038;-72
2022/02/03 15:29:47;;;;;;;4.35;3.42;;;9.70;29.20;;;;;;5034950;28;20038;-72
2022/02/03 15:32:13;;;;;;;4.25;3.33;;;9.70;27.80;;;;;;5035411;28;20030;-71
2022/02/03 15:34:39;;;;;;;7.93;4.45;;;9.60;28.10;;;;;;5034685;28;20033;-71
2022/02/03 15:37:13;;;;;;;6.22;4.68;;;9.50;28.40;;;;;;5035459;28;20473;-71
2022/02/03 15:39:47;;;;;;;7.25;4.35;;;9.50;30.00;;;;;;5034403;28;20078;-71
2022/02/03 15:42:13;;;;;;;10.90;4.90;;;9.40;32.40;;;;;;5034981;28;20083;-71
2022/02/03 15:44:42;;;;;;;7.45;5.72;;;9.20;34.20;;;;;;5034856;28;20423;-71
2022/02/03 15:47:20;;;;;;;7.03;5.25;;;9.10;37.30;;;;;;5033172;28;20625;-71
2022/02/03 16:00:55;;;;;;;8.45;5.53;;;;;;;;;;5033900;28;20036;-73
2022/02/03 16:19:18;;;;;;;5.43;4.47;;;7.90;80.50;;;;;;5053327;28;20053;-72
2022/02/03 16:21:56;;;;;;;6.07;4.80;;;7.80;86.80;;;;;;5053105;28;20123;-72
2022/02/03 16:40:45;;;;;;;6.72;5.00;;;7.60;90.40;;;;;;5052421;28;20115;-72
2022/02/03 16:41:04;;;;;;;6.15;5.50;;;7.20;97.80;;;;;;5052215;28;20110;-71
2022/02/03 16:51:39;;;;;;;5.05;4.28;;;7.10;99.90;;;;;;5052623;28;20122;-71
2022/02/03 16:54:12;;;;;;;4.32;3.92;;;7.00;99.90;;;;;;5052483;28;20072;-71
2022/02/03 16:56:38;;;;;;;5.22;4.72;;;7.10;99.90;;;;;;5053929;28;20078;-71
2022/02/03 16:59:04;;;;;;;4.90;4.40;;;7.00;99.90;;;;;;5043583;28;20049;-72
2022/02/03 17:01:31;;;;;;;5.20;4.30;;;7.00;99.90;;;;;;5047636;28;20051;-73
2022/02/03 17:03:57;;;;;;;5.13;3.70;;;7.00;99.90;;;;;;5050635;28;20083;-74
2022/02/03 17:06:23;;;;;;;5.43;4.38;;;7.10;99.90;;;;;;5052608;28;20124;-73
2022/02/03 17:08:49;;;;;;;4.22;3.83;;;7.00;99.90;;;;;;5052974;28;20033;-73
2022/02/03 17:11:15;;;;;;;4.10;3.70;;;7.00;99.90;;;;;;5053562;28;20037;-74
2022/02/03 17:13:41;;;;;;;5.07;4.03;;;7.10;99.90;;;;;;5050124;28;20484;-73
2022/02/03 17:16:08;;;;;;;6.30;4.30;;;7.00;99.90;;;;;;5053288;28;20039;-74
2022/02/03 17:18:34;;;;;;;5.05;3.90;;;7.00;99.90;;;;;;5054248;28;20045;-74
2022/02/03 17:20:59;;;;;;;4.90;3.75;;;7.20;99.90;;;;;;5060144;28;20141;-74
2022/02/03 17:23:27;;;;;;;5.80;4.03;;;7.10;99.90;;;;;;5059318;28;20132;-73
2022/02/03 17:28:25;;;;;;;3.70;3.10;;;7.40;99.90;;;;;;5060143;28;20029;-73
2022/02/03 17:30:58;;;;;;;4.25;3.33;;;7.40;99.90;;;;;;5053363;28;20111;-74
2022/02/03 18:09:04;;;;;;;3.50;2.75;;;7.30;99.90;;;;;;5061699;28;20064;-75
2022/02/03 18:25:44;;;;;;;2.85;2.45;;;7.10;99.90;;;;;;5060314;28;20036;-74
2022/02/03 18:30:59;;;;;;;2.17;1.98;;;;;;;;;;5057003;28;20032;-74
2022/02/03 18:52:13;;;;;;;2.60;2.40;;;7.00;99.90;;;;;;5056524;28;20040;-73
2022/02/03 18:55:05;;;;;;;2.28;2.08;;;7.10;99.90;;;;;;5048617;28;20060;-73
2022/02/03 18:57:43;;;;;;;2.28;1.95;;;7.20;99.90;;;;;;5043100;28;20071;-73
2022/02/03 19:03:08;;;;;;;3.97;2.30;;;7.20;99.90;;;;;;5034717;28;20550;-72
2022/02/03 19:09:40;;;;;;;3.35;2.80;;;7.30;99.90;;;;;;5054879;28;20055;-72
2022/02/03 20:08:20;;;;;;;6.60;4.63;;;;;;;;;;5071894;28;20032;-75
2022/02/03 20:10:49;;;;;;;6.25;4.88;;;;;;;;;;5074135;28;20068;-74
2022/02/03 20:13:16;;;;;;;4.35;3.95;;;;;;;;;;5072799;28;20043;-73
2022/02/03 20:15:46;;;;;;;5.32;4.63;;;;;;;;;;5071524;28;20118;-73
2022/02/03 20:18:14;;;;;;;6.90;5.45;;;;;;;;;;5072768;28;20075;-73
2022/02/03 20:20:43;;;;;;;7.05;6.05;;;;;;;;;;5073105;28;20043;-73
2022/02/03 20:23:13;;;;;;;8.75;7.57;;;7.50;99.90;;;;;;5073205;28;20064;-73
2022/02/03 20:25:40;;;;;;;9.45;6.95;;;;;;;;;;5063357;28;20057;-73
2022/02/03 20:28:07;;;;;;;7.78;6.03;;;;;;;;;;5054087;28;20048;-74
2022/02/03 20:30:35;;;;;;;7.13;5.95;;;7.60;99.90;;;;;;5053969;28;20045;-74
2022/02/03 20:33:01;;;;;;;8.52;6.35;;;7.70;99.90;;;;;;5052610;28;20040;-74
2022/02/03 20:35:27;;;;;;;6.53;5.15;;;7.70;99.90;;;;;;5053646;28;20091;-73
2022/02/03 20:37:53;;;;;;;6.45;4.78;;;7.70;99.90;;;;;;5052824;28;20021;-74
2022/02/03 20:40:20;;;;;;;8.77;5.70;;;7.70;99.90;;;;;;5053979;28;20033;-73
2022/02/03 20:42:46;;;;;;;5.43;4.22;;;7.70;99.90;;;;;;5053831;28;20036;-73
2022/02/03 20:45:12;;;;;;;5.93;4.95;;;7.70;99.90;;;;;;5062664;28;20083;-73
2022/02/03 20:47:39;;;;;;;5.63;4.07;;;7.70;99.90;;;;;;5052125;28;20025;-73
2022/02/03 20:50:09;;;;;;;5.47;4.60;;;7.70;99.90;;;;;;5052942;28;20041;-73
2022/02/03 20:52:37;;;;;;;4.97;3.70;;;7.70;99.90;;;;;;5052377;28;20029;-74
2022/02/03 20:55:05;;;;;;;6.25;4.00;;;7.70;99.90;;;;;;5052856;28;20037;-74
2022/02/03 20:57:31;;;;;;;4.97;4.18;;;7.70;99.90;;;;;;5053462;28;20025;-74
2022/02/03 21:00:17;;;;;;;4.82;3.88;;;;;;;;;;5054021;28;20215;-74
2022/02/03 21:02:52;;;;;;;3.65;2.90;;;;;;;;;;5053289;28;20201;-74
2022/02/03 21:05:20;;;;;;;2.83;2.35;;;;;;;;;;5051851;28;20056;-74
2022/02/03 21:07:47;;;;;;;2.50;2.00;;;;;;;;;;5052797;28;20052;-74
2022/02/03 21:10:21;;;;;;;3.33;2.47;;;7.60;99.90;;;;;;5053880;28;20041;-74
2022/02/03 21:12:48;;;;;;;2.70;2.28;;;;;;;;;;5049089;28;20029;-74
2022/02/03 21:15:22;;;;;;;2.33;1.92;;;;;;;;;;5045385;28;20480;-74
2022/02/03 21:17:49;;;;;;;2.10;1.90;;;;;;;;;;5052277;28;20060;-74
2022/02/03 21:20:20;;;;;;;3.13;2.08;;;;;;;;;;5046330;28;20040;-74
2022/02/03 21:22:48;;;;;;;;;;;;;;;;;;5033254;28;20112;-74
2022/02/03 21:25:36;;;;;;;3.65;2.67;;;;;;;;;;5031312;28;19917;-75
2022/02/03 21:28:14;;;;;;;1.80;1.65;;;;;;;;;;5033458;28;20038;-75
2022/02/03 21:30:42;;;;;;;2.90;2.00;;;;;;;;;;5033477;28;20060;-74
2022/02/03 21:33:16;;;;;;;1.98;1.80;;;;;;;;;;5032816;28;20095;-75
2022/02/03 21:35:46;;;;;;;1.90;1.70;;;;;;;;;;5034651;28;20369;-75
2022/02/03 21:38:14;;;;;;;3.00;2.30;;;;;;;;;;5051136;28;20103;-75
2022/02/03 21:40:41;;;;;;;2.72;1.88;;;;;;;;;;5053008;28;20043;-75
2022/02/03 21:43:08;;;;;;;3.63;2.28;;;;;;;;;;5053043;28;20056;-75
2022/02/03 21:45:35;;;;;;;3.67;2.03;;;;;;;;;;5053419;28;20120;-74
2022/02/03 21:48:01;;;;;;;2.20;2.00;;;;;;;;;;5052866;28;20063;-75
2022/02/03 21:50:33;;;;;;;2.10;1.90;;;;;;;;;;5053431;28;20037;-75
2022/02/03 21:53:02;;;;;;;2.72;2.10;;;;;;;;;;5053181;28;20159;-75
2022/02/03 21:55:33;;;;;;;2.08;1.92;;;;;;;;;;5052801;28;20033;-75
2022/02/03 21:58:00;;;;;;;2.10;1.80;;;;;;;;;;5049848;28;20037;-74
2022/02/03 22:00:29;;;;;;;2.97;1.90;;;;;;;;;;5044831;28;20047;-74
2022/02/03 22:02:57;;;;;;;3.13;2.17;;;7.80;99.90;;;;;;5040064;28;20076;-74
2022/02/03 22:05:23;;;;;;;2.55;2.00;;;7.90;99.90;;;;;;5041828;28;20049;-74
2022/02/03 22:07:49;;;;;;;2.30;2.10;;;7.90;99.90;;;;;;5036517;28;20120;-74
2022/02/03 22:10:20;;;;;;;2.88;2.00;;;7.90;99.90;;;;;;5036360;28;20043;-74
2022/02/03 22:12:47;;;;;;;2.67;2.20;;;7.90;99.90;;;;;;5035483;28;20562;-74
2022/02/03 22:15:14;;;;;;;2.33;2.05;;;7.90;99.90;;;;;;5035555;28;20041;-75
2022/02/03 22:17:40;;;;;;;2.42;1.95;;;7.80;99.90;;;;;;5042405;28;20504;-75
2022/02/03 22:20:14;;;;;;;2.65;2.10;;;7.80;99.90;;;;;;5052821;28;20068;-74
2022/02/03 22:49:45;;;;;;;3.00;2.17;;;;;;;;;;5056921;28;20065;-74
2022/02/03 22:52:12;;;;;;;2.10;1.90;;;8.00;99.90;;;;;;5057236;28;20123;-74
2022/02/03 22:54:38;;;;;;;4.20;2.40;;;8.10;99.90;;;;;;5057251;28;20479;-74
2022/02/03 22:57:04;;;;;;;2.92;2.28;;;8.10;99.90;;;;;;5057170;28;20039;-74
2022/02/03 23:02:08;;;;;;;2.88;2.28;;;8.10;99.90;;;;;;5057134;28;20415;-74
2022/02/03 23:04:35;;;;;;;2.40;1.92;;;8.00;99.90;;;;;;5056602;28;20091;-74
2022/02/03 23:10:11;;;;;;;2.60;2.33;;;;;;;;;;5057263;28;20040;-74
2022/02/03 23:18:29;;;;;;;2.58;2.20;;;;;;;;;;5018745;28;20041;-75
2022/02/03 23:21:26;;;;;;;3.80;2.80;;;8.10;99.90;;;;;;5056138;28;20033;-75
2022/02/03 23:23:46;;;;;;;4.53;3.22;;;8.10;99.90;;;;;;5056527;28;20068;-74
2022/02/03 23:26:12;;;;;;;3.47;2.55;;;8.10;99.90;;;;;;5056682;28;20114;-74
2022/02/03 23:28:38;;;;;;;3.97;2.35;;;8.10;99.90;;;;;;5056660;28;20060;-74
2022/02/03 23:31:04;;;;;;;4.00;2.60;;;8.10;99.90;;;;;;5057124;28;20114;-74
2022/02/03 23:33:31;;;;;;;4.57;3.33;;;8.10;99.90;;;;;;5056275;28;20051;-74
2022/02/03 23:35:57;;;;;;;3.78;2.97;;;8.10;99.90;;;;;;5056478;28;20044;-75
